LKE9976 ZGSD-ZGGG
Flight info
| Callsign | LKE9976 |
|---|---|
| Flight time | 0h 31m |
| Altitude | 8900 |
| Route | GUBLO W22 IDUMA |
| Aircraft | B738/M-SDE2E3FGHIRWXY/LB1 |
Departure
| Time | 2026-04-23 03:36 |
|---|---|
| Airport | Zhuhai Jinwan Airport (ZGSD) |
Arrival
| Time | 2026-04-23 04:07 |
|---|---|
| Airport | Guangzhou Baiyun International Airport (ZGGG) |
| Time | Latitude | Longitude | Altitude | Speed | Heading |
|---|---|---|---|---|---|
| 2026-04-23 03:33 | 21.99419 | 113.36340 | 17 ft | 0 kts | 44° |
| 2026-04-23 03:35 | 21.99428 | 113.36349 | 17 ft | 10 kts | 44° |
| 2026-04-23 03:35 | 21.99808 | 113.36758 | 18 ft | 137 kts | 46° |
| 2026-04-23 03:36 | 22.00627 | 113.37668 | 165 ft | 186 kts | 32° |
| 2026-04-23 03:36 | 22.01793 | 113.38435 | 394 ft | 208 kts | 31° |
| 2026-04-23 03:36 | 22.02962 | 113.39311 | 1034 ft | 211 kts | 40° |
| 2026-04-23 03:36 | 22.03984 | 113.40430 | 1984 ft | 212 kts | 48° |
| 2026-04-23 03:37 | 22.04999 | 113.41641 | 2430 ft | 230 kts | 45° |
| 2026-04-23 03:37 | 22.06197 | 113.42860 | 3036 ft | 241 kts | 40° |
| 2026-04-23 03:37 | 22.07491 | 113.44075 | 3488 ft | 254 kts | 39° |
| 2026-04-23 03:37 | 22.08856 | 113.45334 | 4022 ft | 260 kts | 39° |
| 2026-04-23 03:38 | 22.10232 | 113.46603 | 4564 ft | 265 kts | 39° |
| 2026-04-23 03:38 | 22.11644 | 113.47910 | 5145 ft | 267 kts | 39° |
| 2026-04-23 03:38 | 22.13055 | 113.49222 | 5694 ft | 271 kts | 39° |
| 2026-04-23 03:38 | 22.14477 | 113.50547 | 6212 ft | 274 kts | 39° |
| 2026-04-23 03:39 | 22.15922 | 113.51894 | 6745 ft | 276 kts | 39° |
| 2026-04-23 03:39 | 22.17382 | 113.53254 | 7259 ft | 278 kts | 39° |
| 2026-04-23 03:39 | 22.18870 | 113.54641 | 7753 ft | 281 kts | 39° |
| 2026-04-23 03:39 | 22.20348 | 113.56017 | 8209 ft | 285 kts | 38° |
| 2026-04-23 03:40 | 22.21866 | 113.57433 | 8668 ft | 288 kts | 39° |
| 2026-04-23 03:40 | 22.23402 | 113.58864 | 8775 ft | 294 kts | 39° |
| 2026-04-23 03:40 | 22.24928 | 113.60285 | 8767 ft | 295 kts | 38° |
| 2026-04-23 03:40 | 22.26469 | 113.61720 | 8768 ft | 296 kts | 38° |
| 2026-04-23 03:41 | 22.28077 | 113.63218 | 8768 ft | 313 kts | 38° |
| 2026-04-23 03:41 | 22.29701 | 113.64732 | 8765 ft | 310 kts | 39° |
| 2026-04-23 03:41 | 22.31313 | 113.66237 | 8763 ft | 313 kts | 39° |
| 2026-04-23 03:41 | 22.32971 | 113.67786 | 8766 ft | 311 kts | 39° |
| 2026-04-23 03:42 | 22.34602 | 113.69313 | 8766 ft | 313 kts | 39° |
| 2026-04-23 03:42 | 22.36239 | 113.70843 | 8764 ft | 311 kts | 39° |
| 2026-04-23 03:42 | 22.37897 | 113.72392 | 8772 ft | 313 kts | 39° |
| 2026-04-23 03:42 | 22.39537 | 113.73924 | 8768 ft | 313 kts | 39° |
| 2026-04-23 03:43 | 22.41202 | 113.75480 | 8769 ft | 314 kts | 39° |
| 2026-04-23 03:43 | 22.42843 | 113.77014 | 8768 ft | 313 kts | 38° |
| 2026-04-23 03:43 | 22.44478 | 113.78544 | 8767 ft | 313 kts | 39° |
| 2026-04-23 03:43 | 22.46136 | 113.80093 | 8767 ft | 312 kts | 38° |
| 2026-04-23 03:44 | 22.47788 | 113.81639 | 8770 ft | 313 kts | 38° |
| 2026-04-23 03:44 | 22.49422 | 113.83170 | 8769 ft | 313 kts | 39° |
| 2026-04-23 03:44 | 22.51072 | 113.84714 | 8768 ft | 314 kts | 39° |
| 2026-04-23 03:44 | 22.52727 | 113.86263 | 8767 ft | 312 kts | 39° |
| 2026-04-23 03:45 | 22.54385 | 113.87817 | 8772 ft | 314 kts | 39° |
| 2026-04-23 03:45 | 22.56015 | 113.89345 | 8774 ft | 312 kts | 38° |
| 2026-04-23 03:45 | 22.57681 | 113.90908 | 8775 ft | 314 kts | 38° |
| 2026-04-23 03:45 | 22.59323 | 113.92448 | 8775 ft | 312 kts | 38° |
| 2026-04-23 03:46 | 22.60956 | 113.93982 | 8770 ft | 313 kts | 39° |
| 2026-04-23 03:46 | 22.62623 | 113.95549 | 8769 ft | 313 kts | 38° |
| 2026-04-23 03:46 | 22.64275 | 113.97099 | 8784 ft | 315 kts | 38° |
| 2026-04-23 03:46 | 22.65918 | 113.98641 | 8774 ft | 315 kts | 38° |
| 2026-04-23 03:47 | 22.67598 | 114.00219 | 8786 ft | 314 kts | 38° |
| 2026-04-23 03:47 | 22.69299 | 114.01685 | 8788 ft | 315 kts | 31° |
| 2026-04-23 03:47 | 22.71198 | 114.02675 | 8784 ft | 307 kts | 8° |
| 2026-04-23 03:47 | 22.73274 | 114.02653 | 8789 ft | 292 kts | 340° |
| 2026-04-23 03:48 | 22.75102 | 114.01914 | 8790 ft | 286 kts | 330° |
| 2026-04-23 03:48 | 22.76901 | 114.01003 | 8781 ft | 284 kts | 329° |
| 2026-04-23 03:48 | 22.78723 | 114.00093 | 8785 ft | 286 kts | 330° |
| 2026-04-23 03:48 | 22.80539 | 113.99241 | 8784 ft | 286 kts | 332° |
| 2026-04-23 03:49 | 22.82392 | 113.98405 | 8781 ft | 286 kts | 332° |
| 2026-04-23 03:49 | 22.84236 | 113.97590 | 8786 ft | 288 kts | 333° |
| 2026-04-23 03:49 | 22.86118 | 113.96757 | 8783 ft | 287 kts | 332° |
| 2026-04-23 03:49 | 22.87953 | 113.95944 | 8783 ft | 287 kts | 332° |
| 2026-04-23 03:50 | 22.89828 | 113.95162 | 8788 ft | 289 kts | 337° |
| 2026-04-23 03:50 | 22.91809 | 113.94695 | 8793 ft | 292 kts | 346° |
| 2026-04-23 03:50 | 22.93837 | 113.94453 | 8785 ft | 295 kts | 349° |
| 2026-04-23 03:50 | 22.95916 | 113.94246 | 8776 ft | 295 kts | 349° |
| 2026-04-23 03:51 | 22.97962 | 113.94020 | 8801 ft | 295 kts | 348° |
| 2026-04-23 03:51 | 23.00004 | 113.93761 | 8800 ft | 295 kts | 347° |
| 2026-04-23 03:51 | 23.02044 | 113.93478 | 8793 ft | 294 kts | 347° |
| 2026-04-23 03:51 | 23.04061 | 113.93194 | 8764 ft | 291 kts | 347° |
| 2026-04-23 03:52 | 23.06050 | 113.92918 | 8550 ft | 282 kts | 347° |
| 2026-04-23 03:52 | 23.07907 | 113.92541 | 8474 ft | 261 kts | 333° |
| 2026-04-23 03:52 | 23.09313 | 113.91422 | 8074 ft | 245 kts | 301° |
| 2026-04-23 03:52 | 23.09976 | 113.89765 | 7669 ft | 239 kts | 279° |
| 2026-04-23 03:53 | 23.10125 | 113.87997 | 7267 ft | 237 kts | 267° |
| 2026-04-23 03:53 | 23.10046 | 113.86217 | 6943 ft | 234 kts | 266° |
| 2026-04-23 03:53 | 23.09992 | 113.84458 | 6891 ft | 234 kts | 268° |
| 2026-04-23 03:53 | 23.09963 | 113.82672 | 6872 ft | 237 kts | 268° |
| 2026-04-23 03:54 | 23.09934 | 113.80875 | 6879 ft | 235 kts | 268° |
| 2026-04-23 03:54 | 23.09904 | 113.79136 | 6609 ft | 233 kts | 268° |
| 2026-04-23 03:54 | 23.09872 | 113.77354 | 6115 ft | 237 kts | 268° |
| 2026-04-23 03:54 | 23.09839 | 113.75565 | 5727 ft | 238 kts | 268° |
| 2026-04-23 03:55 | 23.09807 | 113.73790 | 5405 ft | 235 kts | 268° |
| 2026-04-23 03:55 | 23.09778 | 113.72063 | 5126 ft | 232 kts | 268° |
| 2026-04-23 03:55 | 23.09747 | 113.70266 | 4871 ft | 237 kts | 268° |
| 2026-04-23 03:55 | 23.09713 | 113.68462 | 4862 ft | 245 kts | 268° |
| 2026-04-23 03:56 | 23.09679 | 113.66592 | 4862 ft | 246 kts | 268° |
| 2026-04-23 03:56 | 23.09644 | 113.64734 | 4864 ft | 247 kts | 268° |
| 2026-04-23 03:56 | 23.09609 | 113.62892 | 4867 ft | 245 kts | 268° |
| 2026-04-23 03:56 | 23.09573 | 113.61031 | 4827 ft | 242 kts | 268° |
| 2026-04-23 03:57 | 23.09529 | 113.59213 | 4427 ft | 243 kts | 268° |
| 2026-04-23 03:57 | 23.09486 | 113.57381 | 3986 ft | 245 kts | 269° |
| 2026-04-23 03:57 | 23.09450 | 113.55531 | 3880 ft | 245 kts | 268° |
| 2026-04-23 03:57 | 23.09388 | 113.53674 | 3881 ft | 246 kts | 267° |
| 2026-04-23 03:58 | 23.09326 | 113.51814 | 3874 ft | 247 kts | 268° |
| 2026-04-23 03:58 | 23.09278 | 113.49942 | 3875 ft | 247 kts | 268° |
| 2026-04-23 03:58 | 23.09239 | 113.48081 | 3884 ft | 247 kts | 268° |
| 2026-04-23 03:58 | 23.09319 | 113.46244 | 3850 ft | 243 kts | 279° |
| 2026-04-23 03:59 | 23.09745 | 113.44488 | 3492 ft | 242 kts | 287° |
| 2026-04-23 03:59 | 23.10251 | 113.42793 | 3439 ft | 228 kts | 287° |
| 2026-04-23 03:59 | 23.10722 | 113.41204 | 3359 ft | 217 kts | 287° |
| 2026-04-23 03:59 | 23.11166 | 113.39682 | 3340 ft | 204 kts | 287° |
| 2026-04-23 04:00 | 23.11578 | 113.38267 | 3319 ft | 192 kts | 287° |
| 2026-04-23 04:00 | 23.11969 | 113.36919 | 3259 ft | 183 kts | 287° |
| 2026-04-23 04:00 | 23.12350 | 113.35577 | 3046 ft | 184 kts | 287° |
| 2026-04-23 04:00 | 23.12712 | 113.34261 | 2988 ft | 182 kts | 287° |
| 2026-04-23 04:01 | 23.13075 | 113.32939 | 2984 ft | 185 kts | 286° |
| 2026-04-23 04:01 | 23.13447 | 113.31589 | 2979 ft | 185 kts | 287° |
| 2026-04-23 04:01 | 23.13823 | 113.30241 | 2977 ft | 184 kts | 287° |
| 2026-04-23 04:01 | 23.14196 | 113.28924 | 2976 ft | 184 kts | 287° |
| 2026-04-23 04:02 | 23.14570 | 113.27595 | 2976 ft | 184 kts | 287° |
| 2026-04-23 04:02 | 23.15144 | 113.26357 | 2971 ft | 184 kts | 313° |
| 2026-04-23 04:02 | 23.16279 | 113.25737 | 2983 ft | 187 kts | 351° |
| 2026-04-23 04:02 | 23.17591 | 113.25791 | 2993 ft | 189 kts | 5° |
| 2026-04-23 04:03 | 23.18877 | 113.26012 | 2986 ft | 188 kts | 8° |
| 2026-04-23 04:03 | 23.20166 | 113.26308 | 2988 ft | 187 kts | 11° |
| 2026-04-23 04:03 | 23.21431 | 113.26629 | 2981 ft | 188 kts | 12° |
| 2026-04-23 04:03 | 23.22722 | 113.26968 | 2901 ft | 190 kts | 12° |
| 2026-04-23 04:04 | 23.24004 | 113.27309 | 2653 ft | 192 kts | 12° |
| 2026-04-23 04:04 | 23.25314 | 113.27658 | 2383 ft | 194 kts | 12° |
| 2026-04-23 04:04 | 23.26646 | 113.28015 | 2117 ft | 196 kts | 12° |
| 2026-04-23 04:04 | 23.27976 | 113.28374 | 1851 ft | 197 kts | 12° |
| 2026-04-23 04:05 | 23.29281 | 113.28724 | 1583 ft | 186 kts | 13° |
| 2026-04-23 04:05 | 23.30492 | 113.29051 | 1352 ft | 170 kts | 12° |
| 2026-04-23 04:05 | 23.31586 | 113.29348 | 1145 ft | 156 kts | 12° |
| 2026-04-23 04:05 | 23.32638 | 113.29629 | 931 ft | 155 kts | 12° |
| 2026-04-23 04:06 | 23.33697 | 113.29915 | 716 ft | 154 kts | 12° |
| 2026-04-23 04:06 | 23.34728 | 113.30190 | 552 ft | 154 kts | 12° |
| 2026-04-23 04:06 | 23.35769 | 113.30468 | 316 ft | 153 kts | 12° |
| 2026-04-23 04:06 | 23.36771 | 113.30732 | 131 ft | 136 kts | 10° |
| 2026-04-23 04:07 | 23.37626 | 113.30952 | 44 ft | 109 kts | 12° |
| 2026-04-23 04:07 | 23.38135 | 113.31090 | 40 ft | 60 kts | 12° |
| 2026-04-23 04:07 | 23.38531 | 113.31194 | 39 ft | 53 kts | 12° |
| 2026-04-23 04:07 | 23.38786 | 113.31175 | 41 ft | 22 kts | 340° |
| 2026-04-23 04:08 | 23.38933 | 113.31137 | 42 ft | 17 kts | 24° |
| 2026-04-23 04:08 | 23.39102 | 113.31159 | 42 ft | 27 kts | 38° |
| 2026-04-23 04:08 | 23.39213 | 113.31186 | 42 ft | 17 kts | 3° |
| 2026-04-23 04:08 | 23.39338 | 113.31213 | 42 ft | 20 kts | 12° |
| 2026-04-23 04:09 | 23.39477 | 113.31249 | 42 ft | 20 kts | 12° |
| 2026-04-23 04:09 | 23.39623 | 113.31280 | 42 ft | 21 kts | 9° |
| 2026-04-23 04:09 | 23.39767 | 113.31326 | 42 ft | 22 kts | 18° |
| 2026-04-23 04:09 | 23.39919 | 113.31371 | 41 ft | 23 kts | 14° |
| 2026-04-23 04:10 | 23.40041 | 113.31403 | 43 ft | 0 kts | 11° |
| 2026-04-23 04:10 | 23.40132 | 113.31428 | 46 ft | 36 kts | 15° |
| 2026-04-23 04:10 | 23.40276 | 113.31470 | 50 ft | 17 kts | 0° |
| 2026-04-23 04:10 | 23.40326 | 113.31420 | 53 ft | 0 kts | 287° |
| 2026-04-23 04:11 | 23.40327 | 113.31419 | 53 ft | 0 kts | 287° |
| 2026-04-23 04:11 | 23.40330 | 113.31406 | 53 ft | 8 kts | 287° |
| 2026-04-23 04:11 | 23.40366 | 113.31263 | 57 ft | 22 kts | 284° |
| 2026-04-23 04:11 | 23.40395 | 113.31139 | 60 ft | 9 kts | 285° |
| 2026-04-23 04:12 | 23.40398 | 113.31123 | 60 ft | 1 kts | 283° |
| 2026-04-23 04:12 | 23.40412 | 113.31042 | 62 ft | 21 kts | 252° |
| 2026-04-23 04:12 | 23.40359 | 113.31001 | 62 ft | 2 kts | 199° |
| 2026-04-23 04:12 | 23.40293 | 113.30970 | 58 ft | 17 kts | 200° |
| 2026-04-23 04:13 | 23.40245 | 113.30955 | 54 ft | 0 kts | 191° |
| 2026-04-23 04:13 | 23.40221 | 113.30946 | 53 ft | 10 kts | 223° |
| 2026-04-23 04:13 | 23.40232 | 113.30823 | 50 ft | 18 kts | 290° |
| 2026-04-23 04:14 | 23.40219 | 113.30698 | 47 ft | 18 kts | 220° |
| 2026-04-23 04:14 | 23.40197 | 113.30679 | 46 ft | 0 kts | 215° |